Time;durP1;ratioP1;P1;durP2;ratioP2;P2;SDS_P1;SDS_P2;PMS_P1;PMS_P2;Temp;Humidity;BMP_temperature;BMP_pressure;BME280_temperature;BME280_humidity;BME280_pressure;Samples;Min_cycle;Max_cycle;Signal;HPM_P1;HPM_P2
2021/12/26 00:01:08;;;;;;;19.27;12.63;;;3.70;99.90;;;;;;4885791;29;20515;-76
2021/12/26 00:03:35;;;;;;;16.93;10.13;;;3.80;99.90;;;;;;4897329;29;20430;-76
2021/12/26 00:06:06;;;;;;;16.90;11.67;;;3.80;99.90;;;;;;4897431;29;20410;-76
2021/12/26 00:08:34;;;;;;;18.13;12.00;;;3.70;99.90;;;;;;4897239;29;20416;-76
2021/12/26 00:10:59;;;;;;;17.35;11.23;;;3.70;99.90;;;;;;4896806;29;21095;-75
2021/12/26 00:13:25;;;;;;;15.87;11.00;;;3.70;99.90;;;;;;4890869;29;20185;-75
2021/12/26 00:15:51;;;;;;;16.73;10.77;;;3.70;99.90;;;;;;4878677;29;20244;-75
2021/12/26 00:18:17;;;;;;;13.70;10.20;;;3.70;99.90;;;;;;4878736;29;20178;-76
2021/12/26 00:20:45;;;;;;;15.70;10.57;;;3.70;99.90;;;;;;4876782;29;20270;-75
2021/12/26 00:23:11;;;;;;;15.20;10.27;;;3.70;99.90;;;;;;4878504;29;20490;-75
2021/12/26 00:25:37;;;;;;;13.73;10.20;;;3.70;99.90;;;;;;4878680;29;20508;-74
2021/12/26 00:28:03;;;;;;;16.00;10.73;;;3.70;99.90;;;;;;4878631;29;20986;-75
2021/12/26 00:30:29;;;;;;;16.70;11.70;;;3.80;99.90;;;;;;4878420;29;20201;-76
2021/12/26 00:32:54;;;;;;;15.23;10.83;;;3.80;99.90;;;;;;4877981;29;20452;-75
2021/12/26 00:35:22;;;;;;;15.00;10.30;;;3.80;99.90;;;;;;4878472;29;21014;-76
2021/12/26 00:37:49;;;;;;;22.10;10.83;;;3.70;99.90;;;;;;4878472;29;20666;-75
2021/12/26 00:40:19;;;;;;;19.27;10.47;;;3.70;99.90;;;;;;4878202;29;20391;-75
2021/12/26 00:42:45;;;;;;;15.73;10.40;;;3.70;99.90;;;;;;4878153;29;20801;-74
2021/12/26 00:45:11;;;;;;;19.60;11.00;;;3.80;99.90;;;;;;4878142;29;20424;-75
2021/12/26 00:47:36;;;;;;;14.23;10.13;;;3.80;99.90;;;;;;4878259;29;20432;-76
2021/12/26 00:50:07;;;;;;;15.47;10.53;;;3.70;99.90;;;;;;4877898;29;20782;-76
2021/12/26 00:52:32;;;;;;;18.97;10.50;;;3.80;99.90;;;;;;4878262;29;20252;-75
2021/12/26 00:54:58;;;;;;;18.40;11.30;;;3.70;99.90;;;;;;4877261;29;20913;-75
2021/12/26 00:57:24;;;;;;;21.27;11.93;;;3.80;99.90;;;;;;4876494;29;20181;-75
2021/12/26 00:59:49;;;;;;;24.23;12.60;;;3.80;99.90;;;;;;4876276;29;20191;-75
2021/12/26 05:31:31;;;;;;;35.30;17.93;;;3.80;99.90;;;;;;5476598;23;20561;-75
2021/12/26 05:33:56;;;;;;;34.00;18.17;;;3.80;99.90;;;;;;4875323;29;20842;-76
2021/12/26 05:36:22;;;;;;;36.07;17.73;;;3.80;99.90;;;;;;4876566;29;20195;-76
2021/12/26 05:38:47;;;;;;;32.03;17.83;;;3.80;99.90;;;;;;4877764;29;20181;-77
2021/12/26 05:41:13;;;;;;;31.63;17.57;;;3.80;99.90;;;;;;4877252;29;20205;-76
2021/12/26 05:43:38;;;;;;;34.10;18.17;;;3.80;99.90;;;;;;4876799;29;20198;-76
2021/12/26 05:46:04;;;;;;;33.20;17.90;;;3.80;99.90;;;;;;4876719;29;20185;-76
2021/12/26 05:48:29;;;;;;;39.53;18.20;;;3.80;99.90;;;;;;4877921;29;20262;-76
2021/12/26 05:50:55;;;;;;;31.60;17.63;;;3.80;99.90;;;;;;4877364;29;20212;-77
2021/12/26 05:53:21;;;;;;;36.47;18.20;;;3.80;99.90;;;;;;4877442;29;20174;-75
2021/12/26 05:55:46;;;;;;;35.83;18.20;;;3.80;99.90;;;;;;4877552;29;20180;-77
2021/12/26 05:58:12;;;;;;;37.63;18.10;;;3.80;99.90;;;;;;4878830;29;20178;-76
2021/12/26 06:00:37;;;;;;;34.90;18.00;;;3.80;99.90;;;;;;4883123;29;20181;-78
2021/12/26 06:03:03;;;;;;;37.20;18.00;;;3.90;99.90;;;;;;4882967;29;20184;-78
2021/12/26 06:05:28;;;;;;;38.63;17.90;;;3.90;99.90;;;;;;4883747;29;20184;-78
2021/12/26 06:07:54;;;;;;;30.13;16.47;;;3.90;99.90;;;;;;4884057;29;20271;-78
2021/12/26 06:10:20;;;;;;;43.83;18.23;;;3.90;99.90;;;;;;4883437;29;20199;-78
2021/12/26 06:12:45;;;;;;;39.57;18.90;;;3.90;99.90;;;;;;4883095;29;20225;-78
2021/12/26 06:15:13;;;;;;;37.63;19.20;;;3.90;99.90;;;;;;4882174;29;20185;-78
2021/12/26 06:17:39;;;;;;;33.67;18.03;;;3.90;99.90;;;;;;4883500;29;20242;-80
2021/12/26 06:20:05;;;;;;;32.87;17.00;;;4.00;99.90;;;;;;4883517;29;20517;-78
2021/12/26 06:22:31;;;;;;;31.57;16.20;;;4.00;99.90;;;;;;4883144;29;20479;-78
2021/12/26 06:24:56;;;;;;;27.10;15.70;;;3.90;99.90;;;;;;4883120;29;20782;-78
2021/12/26 06:27:22;;;;;;;31.17;16.00;;;4.00;99.90;;;;;;4883177;29;20273;-78
2021/12/26 06:29:48;;;;;;;34.37;18.47;;;4.00;99.90;;;;;;4883419;29;20221;-78
2021/12/26 06:32:13;;;;;;;33.33;17.40;;;4.00;99.90;;;;;;4881333;29;20308;-78
2021/12/26 06:34:39;;;;;;;33.03;16.90;;;4.00;99.90;;;;;;4882738;29;20266;-78
2021/12/26 06:37:05;;;;;;;28.23;16.23;;;4.00;99.90;;;;;;4883025;29;20181;-78
2021/12/26 06:39:30;;;;;;;30.40;16.23;;;4.00;99.90;;;;;;4882834;29;20674;-78
2021/12/26 06:41:56;;;;;;;28.07;16.60;;;4.00;99.90;;;;;;4882724;29;20304;-78
2021/12/26 06:44:22;;;;;;;35.07;19.07;;;4.00;99.90;;;;;;4888186;29;20640;-78
2021/12/26 06:46:48;;;;;;;29.23;16.43;;;4.00;99.90;;;;;;4884743;29;20203;-78
2021/12/26 06:49:17;;;;;;;34.20;17.43;;;4.00;99.90;;;;;;4880852;29;20193;-78
2021/12/26 06:51:43;;;;;;;34.83;16.70;;;4.00;99.90;;;;;;4880501;29;20219;-78
2021/12/26 06:54:09;;;;;;;32.17;17.83;;;4.00;99.90;;;;;;4880418;29;20931;-78
2021/12/26 06:56:34;;;;;;;37.20;17.87;;;4.00;99.90;;;;;;4880840;29;20421;-78
2021/12/26 06:59:00;;;;;;;31.03;18.13;;;4.10;99.90;;;;;;4880570;29;20181;-78
2021/12/26 07:01:25;;;;;;;33.93;18.33;;;4.10;99.90;;;;;;4880771;29;20678;-78
2021/12/26 07:03:53;;;;;;;31.70;18.20;;;4.10;99.90;;;;;;4879497;29;20284;-78
2021/12/26 07:06:19;;;;;;;33.63;16.40;;;4.10;99.90;;;;;;4880735;29;20253;-78
2021/12/26 07:08:45;;;;;;;36.83;18.53;;;4.10;99.90;;;;;;4880252;29;20440;-78
2021/12/26 07:11:10;;;;;;;35.40;17.30;;;4.10;99.90;;;;;;4880527;29;20205;-78
2021/12/26 07:13:36;;;;;;;32.07;17.87;;;4.10;99.90;;;;;;4880207;29;20196;-75
2021/12/26 07:16:01;;;;;;;33.10;17.60;;;4.20;99.90;;;;;;4879892;29;20178;-77
2021/12/26 07:18:27;;;;;;;26.53;15.13;;;4.20;99.90;;;;;;4879975;29;20248;-76
2021/12/26 07:20:53;;;;;;;33.30;16.93;;;4.20;99.90;;;;;;4879666;29;20202;-76
2021/12/26 07:23:18;;;;;;;38.03;17.87;;;4.30;99.90;;;;;;4879657;29;20613;-75
2021/12/26 07:25:44;;;;;;;35.67;18.10;;;4.30;99.90;;;;;;4880016;29;20192;-76
2021/12/26 07:28:10;;;;;;;29.87;16.43;;;4.30;99.90;;;;;;4880369;29;20181;-75
2021/12/26 07:30:35;;;;;;;35.63;18.20;;;4.30;99.90;;;;;;4879552;29;20551;-75
2021/12/26 07:33:01;;;;;;;33.97;17.73;;;4.30;99.90;;;;;;4879228;29;20222;-76
2021/12/26 07:35:27;;;;;;;35.07;17.20;;;4.30;99.90;;;;;;4879662;29;20553;-76
2021/12/26 07:37:53;;;;;;;32.07;17.70;;;4.30;99.90;;;;;;4879733;29;20217;-76
2021/12/26 07:40:19;;;;;;;35.87;18.27;;;4.30;99.90;;;;;;4879265;29;20429;-76
2021/12/26 07:42:45;;;;;;;37.53;18.90;;;4.40;99.90;;;;;;4879369;29;20216;-75
2021/12/26 07:45:11;;;;;;;35.50;19.30;;;4.40;99.90;;;;;;4879459;29;20249;-77
2021/12/26 07:47:37;;;;;;;44.03;20.93;;;4.50;99.90;;;;;;4879660;29;20437;-76
2021/12/26 07:50:04;;;;;;;36.50;20.05;;;4.50;99.90;;;;;;4878609;29;20476;-75
2021/12/26 07:52:34;;;;;;;39.63;20.50;;;4.40;99.90;;;;;;4879132;29;20236;-76
2021/12/26 07:55:01;;;;;;;35.43;17.40;;;4.40;99.90;;;;;;4875504;29;20473;-74
2021/12/26 07:57:27;;;;;;;31.40;18.07;;;4.50;99.90;;;;;;4869615;29;20449;-74
2021/12/26 07:59:52;;;;;;;36.80;17.60;;;4.50;99.90;;;;;;4878917;29;20461;-75
2021/12/26 08:02:19;;;;;;;37.57;18.20;;;4.60;99.90;;;;;;4878563;29;20234;-75
2021/12/26 08:04:45;;;;;;;37.13;18.40;;;4.60;99.90;;;;;;4878853;29;20582;-75
2021/12/26 08:07:11;;;;;;;36.27;18.33;;;4.60;99.90;;;;;;4878173;29;20461;-75
2021/12/26 08:09:36;;;;;;;36.10;18.33;;;4.50;99.90;;;;;;4877399;29;21025;-75
2021/12/26 08:12:02;;;;;;;29.00;16.13;;;4.50;99.90;;;;;;4878580;29;20260;-75
2021/12/26 08:14:28;;;;;;;35.30;18.40;;;4.60;99.90;;;;;;4878703;29;20237;-75
2021/12/26 08:16:53;;;;;;;38.43;18.70;;;4.70;99.90;;;;;;4873630;29;20236;-74
2021/12/26 08:19:19;;;;;;;31.90;16.43;;;4.70;99.90;;;;;;4876658;29;20700;-74
2021/12/26 08:21:44;;;;;;;33.17;18.07;;;4.60;99.90;;;;;;4874581;29;21122;-74
2021/12/26 08:24:10;;;;;;;35.73;17.30;;;4.70;99.90;;;;;;4870177;29;20257;-75
2021/12/26 08:26:36;;;;;;;38.13;18.23;;;4.70;99.90;;;;;;4873114;29;20227;-74
2021/12/26 08:29:02;;;;;;;33.53;18.97;;;4.70;99.90;;;;;;4874555;29;20247;-74
2021/12/26 08:31:28;;;;;;;31.73;17.77;;;4.70;99.90;;;;;;4876365;29;20480;-75
2021/12/26 08:33:54;;;;;;;32.80;17.47;;;4.70;99.90;;;;;;4875811;29;20230;-74
2021/12/26 08:36:21;;;;;;;35.00;19.10;;;4.70;99.90;;;;;;4877682;29;21020;-74
2021/12/26 08:38:47;;;;;;;37.90;19.07;;;4.80;99.90;;;;;;4874235;29;20259;-74
2021/12/26 08:41:13;;;;;;;37.10;17.10;;;4.80;99.90;;;;;;4877144;29;20963;-74
2021/12/26 08:43:42;;;;;;;33.67;17.77;;;4.90;99.90;;;;;;4877589;29;20477;-75
2021/12/26 08:46:08;;;;;;;40.60;18.97;;;4.80;99.90;;;;;;4878085;29;20478;-75
2021/12/26 08:48:33;;;;;;;32.47;17.77;;;4.90;99.90;;;;;;4877778;29;20563;-74
2021/12/26 08:50:59;;;;;;;31.37;16.50;;;4.90;99.90;;;;;;4877160;29;21011;-74
2021/12/26 08:53:26;;;;;;;35.13;18.13;;;5.00;99.90;;;;;;4877667;29;20238;-75
2021/12/26 08:55:52;;;;;;;35.77;19.73;;;5.00;99.90;;;;;;4873499;29;20241;-73
2021/12/26 08:58:18;;;;;;;32.20;18.30;;;5.00;99.90;;;;;;4874793;29;21987;-73
2021/12/26 09:00:44;;;;;;;35.83;18.90;;;5.00;99.90;;;;;;4875540;29;20610;-74
2021/12/26 09:03:10;;;;;;;35.47;19.60;;;5.10;99.90;;;;;;4874719;29;20520;-74
2021/12/26 09:05:35;;;;;;;43.17;20.17;;;5.20;99.90;;;;;;4875220;29;20271;-75
2021/12/26 09:08:02;;;;;;;37.83;18.80;;;5.20;99.90;;;;;;4874719;29;20229;-74
2021/12/26 09:10:28;;;;;;;35.13;19.43;;;5.20;99.90;;;;;;4875519;29;20680;-73
2021/12/26 09:12:54;;;;;;;40.33;19.00;;;5.30;99.90;;;;;;4875071;29;20562;-75
2021/12/26 09:15:21;;;;;;;32.63;19.63;;;5.30;99.90;;;;;;4875263;29;20445;-75
2021/12/26 09:17:47;;;;;;;34.40;18.40;;;5.30;99.90;;;;;;4874982;29;20439;-75
2021/12/26 09:20:13;;;;;;;36.80;20.00;;;5.40;99.90;;;;;;4875218;29;20881;-75
2021/12/26 09:22:40;;;;;;;36.10;18.97;;;5.40;99.90;;;;;;4873983;29;20465;-75
2021/12/26 09:25:06;;;;;;;34.33;18.77;;;5.50;99.90;;;;;;4874654;29;20205;-75
2021/12/26 09:27:32;;;;;;;36.07;20.00;;;5.70;99.90;;;;;;4875299;29;20455;-75
2021/12/26 09:29:58;;;;;;;31.50;17.27;;;5.70;99.90;;;;;;4874172;29;20458;-74
2021/12/26 09:32:23;;;;;;;30.70;17.20;;;5.80;99.90;;;;;;4874778;29;20246;-73
2021/12/26 09:34:49;;;;;;;32.90;17.47;;;5.90;99.90;;;;;;4874510;29;20238;-71
2021/12/26 09:37:14;;;;;;;32.53;17.30;;;6.00;99.90;;;;;;4874972;29;20732;-71
2021/12/26 09:39:40;;;;;;;30.80;18.80;;;6.10;99.90;;;;;;4874538;29;20216;-71
2021/12/26 09:42:06;;;;;;;29.13;15.47;;;6.10;99.90;;;;;;4873870;29;20222;-71
2021/12/26 09:44:32;;;;;;;27.10;15.50;;;6.10;99.90;;;;;;4873461;29;20479;-71
2021/12/26 09:46:58;;;;;;;27.93;15.83;;;6.20;99.90;;;;;;4873390;29;20469;-70
2021/12/26 09:49:23;;;;;;;28.87;17.40;;;6.20;99.90;;;;;;4874033;29;20240;-70
2021/12/26 09:51:52;;;;;;;25.57;15.60;;;6.20;99.90;;;;;;4874489;29;20219;-70
2021/12/26 09:54:18;;;;;;;27.00;15.73;;;6.30;99.90;;;;;;4874074;29;20287;-70
2021/12/26 09:56:44;;;;;;;27.73;15.97;;;6.30;99.90;;;;;;4874855;29;20447;-70
2021/12/26 09:59:21;;;;;;;28.20;15.90;;;6.30;99.90;;;;;;4874355;29;20485;-71
2021/12/26 10:01:53;;;;;;;26.80;15.27;;;6.30;99.90;;;;;;4873966;29;20222;-69
2021/12/26 10:04:25;;;;;;;27.23;16.33;;;6.30;99.90;;;;;;4873798;29;20479;-70
2021/12/26 10:07:12;;;;;;;24.60;16.40;;;6.40;99.90;;;;;;4874281;29;20480;-70
2021/12/26 10:09:41;;;;;;;29.60;16.13;;;6.30;99.90;;;;;;4874390;29;20532;-69
2021/12/26 10:12:08;;;;;;;30.67;15.97;;;6.40;99.90;;;;;;4873486;29;20571;-70
2021/12/26 10:14:35;;;;;;;29.60;15.60;;;6.30;99.90;;;;;;4873370;29;20479;-69
2021/12/26 10:17:03;;;;;;;28.30;17.00;;;6.40;99.90;;;;;;4874040;29;20482;-69
2021/12/26 10:19:33;;;;;;;27.03;16.00;;;6.40;99.90;;;;;;4874097;29;20527;-70
2021/12/26 10:22:00;;;;;;;27.77;17.40;;;6.50;99.90;;;;;;4873669;29;20513;-70
2021/12/26 10:24:28;;;;;;;30.50;16.63;;;6.60;99.90;;;;;;4874422;29;20580;-70
2021/12/26 10:26:56;;;;;;;23.93;15.10;;;6.70;99.90;;;;;;4873449;29;20998;-71
2021/12/26 10:29:40;;;;;;;27.73;15.70;;;6.80;99.90;;;;;;4874292;29;20486;-71
2021/12/26 10:32:20;;;;;;;25.13;15.17;;;6.90;99.90;;;;;;4873354;29;20538;-71
2021/12/26 10:34:50;;;;;;;26.60;16.27;;;6.90;99.90;;;;;;4880324;29;20461;-70
2021/12/26 10:37:30;;;;;;;26.60;16.50;;;6.90;99.90;;;;;;4874071;29;20822;-70
2021/12/26 10:39:59;;;;;;;19.60;13.90;;;6.90;99.90;;;;;;4864434;29;20468;-69
2021/12/26 10:42:33;;;;;;;22.83;14.80;;;6.80;99.90;;;;;;4875023;29;20571;-71
2021/12/26 10:45:08;;;;;;;23.47;14.63;;;6.80;99.90;;;;;;4876674;29;20546;-70
2021/12/26 10:47:36;;;;;;;22.93;14.00;;;6.80;99.90;;;;;;4877997;29;20460;-70
2021/12/26 10:50:02;;;;;;;27.73;15.73;;;6.80;99.90;;;;;;4878004;29;21010;-70
2021/12/26 10:52:34;;;;;;;24.77;17.10;;;6.80;99.90;;;;;;4878293;29;20532;-70
2021/12/26 10:55:15;;;;;;;25.77;15.20;;;6.80;99.90;;;;;;4877970;29;20930;-70
2021/12/26 10:57:46;;;;;;;23.57;14.93;;;6.80;99.90;;;;;;4879228;29;20492;-70
2021/12/26 11:00:24;;;;;;;26.80;16.40;;;6.80;99.90;;;;;;4879475;29;20471;-71
2021/12/26 11:03:00;;;;;;;28.23;16.97;;;6.90;99.90;;;;;;4879012;29;20474;-69
2021/12/26 11:05:29;;;;;;;26.67;15.87;;;6.90;99.90;;;;;;4879616;29;20456;-70
2021/12/26 11:07:57;;;;;;;22.80;14.30;;;7.00;99.90;;;;;;4879988;29;20430;-70
2021/12/26 11:10:31;;;;;;;24.97;15.73;;;7.00;99.90;;;;;;4879827;29;20425;-71
2021/12/26 11:12:59;;;;;;;24.37;15.47;;;7.00;99.90;;;;;;4879459;29;20504;-70
2021/12/26 11:15:29;;;;;;;22.13;15.13;;;7.20;99.90;;;;;;4879651;29;20419;-70
2021/12/26 11:17:59;;;;;;;25.60;15.37;;;7.30;99.90;;;;;;4878605;29;20469;-70
2021/12/26 11:20:32;;;;;;;24.07;13.90;;;7.40;99.90;;;;;;4879805;29;20490;-70
2021/12/26 11:22:59;;;;;;;23.13;13.77;;;7.60;99.90;;;;;;4879659;29;20424;-70
2021/12/26 11:25:26;;;;;;;20.17;13.83;;;7.80;99.90;;;;;;4879820;29;20436;-70
2021/12/26 11:27:52;;;;;;;18.70;12.50;;;8.00;99.90;;;;;;4879704;29;20453;-71
2021/12/26 11:30:18;;;;;;;19.53;13.23;;;8.20;99.90;;;;;;4879486;29;20910;-71
2021/12/26 11:32:44;;;;;;;18.27;13.47;;;8.30;99.90;;;;;;4879257;29;20225;-68
2021/12/26 11:35:10;;;;;;;15.90;11.07;;;8.30;99.90;;;;;;4879438;29;20445;-70
2021/12/26 11:37:38;;;;;;;19.33;12.80;;;8.30;99.90;;;;;;4879907;29;20419;-71
2021/12/26 11:40:08;;;;;;;14.03;10.40;;;8.40;99.90;;;;;;4879652;29;20547;-71
2021/12/26 11:42:58;;;;;;;15.63;10.80;;;8.30;99.90;;;;;;4879441;29;20460;-71
2021/12/26 11:45:49;;;;;;;11.87;9.80;;;8.30;99.90;;;;;;4879569;29;20428;-71
2021/12/26 11:48:44;;;;;;;16.67;11.57;;;8.30;99.90;;;;;;4879442;29;20420;-71
2021/12/26 11:51:47;;;;;;;13.40;10.57;;;8.20;99.90;;;;;;4878835;29;20478;-71
2021/12/26 11:54:28;;;;;;;13.63;9.23;;;8.20;99.90;;;;;;4879203;29;20873;-71
2021/12/26 11:56:57;;;;;;;13.23;9.20;;;8.20;99.90;;;;;;4880119;29;20914;-70
2021/12/26 11:59:41;;;;;;;10.80;8.67;;;8.20;99.90;;;;;;4879156;29;20814;-70
2021/12/26 12:02:06;;;;;;;13.17;9.17;;;8.10;99.90;;;;;;4878865;29;20437;-70
2021/12/26 12:04:32;;;;;;;11.67;9.70;;;8.10;99.90;;;;;;4879131;29;20747;-70
2021/12/26 12:07:04;;;;;;;15.80;9.87;;;8.10;99.90;;;;;;4878034;29;20693;-71
2021/12/26 12:09:39;;;;;;;16.13;10.17;;;8.10;99.90;;;;;;4879166;29;20417;-70
2021/12/26 12:12:14;;;;;;;12.73;9.40;;;8.10;99.90;;;;;;4878590;29;20469;-70
2021/12/26 12:14:54;;;;;;;14.70;9.33;;;8.20;99.90;;;;;;4878782;29;20430;-71
2021/12/26 12:17:35;;;;;;;12.93;9.00;;;8.20;99.90;;;;;;4878712;29;20995;-71
2021/12/26 12:20:21;;;;;;;11.57;9.67;;;8.20;99.90;;;;;;4879505;29;20414;-71
2021/12/26 12:23:04;;;;;;;15.40;9.60;;;8.20;99.90;;;;;;4879309;29;20982;-68
2021/12/26 12:25:33;;;;;;;12.30;9.60;;;8.20;99.90;;;;;;4878804;29;20421;-70
2021/12/26 12:28:06;;;;;;;12.33;9.00;;;8.30;99.90;;;;;;4877819;29;20425;-70
2021/12/26 12:30:32;;;;;;;11.67;9.30;;;8.40;99.90;;;;;;4878130;29;20799;-69
2021/12/26 12:33:33;;;;;;;11.90;9.50;;;8.40;99.90;;;;;;4874196;29;20484;-70
2021/12/26 12:36:00;;;;;;;13.20;10.03;;;8.50;99.90;;;;;;4835905;29;20211;-71
2021/12/26 12:38:38;;;;;;;10.93;9.00;;;8.40;99.90;;;;;;4867986;29;20526;-70
2021/12/26 12:41:08;;;;;;;12.50;9.20;;;8.40;99.90;;;;;;4875282;29;20844;-71
2021/12/26 12:43:43;;;;;;;12.50;9.10;;;8.30;99.90;;;;;;4875663;29;20867;-71
2021/12/26 12:46:11;;;;;;;10.57;8.20;;;8.30;99.90;;;;;;4873500;29;20804;-70
2021/12/26 12:48:47;;;;;;;12.10;9.10;;;8.40;99.90;;;;;;4875092;29;20450;-71
2021/12/26 12:51:16;;;;;;;10.20;8.97;;;8.40;99.90;;;;;;4874345;29;20420;-70
2021/12/26 12:53:46;;;;;;;12.40;8.93;;;8.50;99.90;;;;;;4875551;29;20424;-71
2021/12/26 12:56:44;;;;;;;9.80;8.23;;;8.50;99.90;;;;;;4875529;29;20445;-70
2021/12/26 12:59:16;;;;;;;14.97;8.30;;;8.50;99.90;;;;;;4874480;29;20525;-71
2021/12/26 13:01:44;;;;;;;13.10;9.33;;;8.40;99.90;;;;;;4874607;29;20625;-71
2021/12/26 13:04:11;;;;;;;11.73;8.80;;;8.30;99.90;;;;;;4875232;29;20457;-71
2021/12/26 13:06:50;;;;;;;13.43;9.37;;;8.30;99.90;;;;;;4875266;29;20446;-70
2021/12/26 13:09:16;;;;;;;9.70;8.50;;;8.30;99.90;;;;;;4871143;29;20462;-70
2021/12/26 13:11:42;;;;;;;11.40;9.07;;;8.30;99.90;;;;;;4874950;29;20521;-71
2021/12/26 13:14:08;;;;;;;10.77;8.50;;;8.30;99.90;;;;;;4872189;29;20262;-74
2021/12/26 13:16:33;;;;;;;11.30;8.90;;;8.30;99.90;;;;;;4875727;29;20432;-71
2021/12/26 13:19:07;;;;;;;12.53;9.27;;;8.40;99.90;;;;;;4875320;29;20216;-69
2021/12/26 13:21:33;;;;;;;13.30;9.40;;;8.30;99.90;;;;;;4871409;29;20301;-70
2021/12/26 13:23:59;;;;;;;11.33;9.50;;;8.40;99.90;;;;;;4874467;29;20521;-71
2021/12/26 13:26:24;;;;;;;11.33;8.13;;;8.40;99.90;;;;;;4874696;29;20205;-71
2021/12/26 13:28:50;;;;;;;11.97;9.00;;;8.40;99.90;;;;;;4873379;29;21469;-72
2021/12/26 13:31:24;;;;;;;12.10;9.53;;;8.40;99.90;;;;;;4872685;29;20229;-71
2021/12/26 13:33:52;;;;;;;13.10;9.03;;;8.40;99.90;;;;;;4874179;29;20204;-71
2021/12/26 13:36:21;;;;;;;10.83;9.07;;;8.40;99.90;;;;;;4873176;29;20438;-73
2021/12/26 13:38:48;;;;;;;13.23;10.10;;;8.40;99.90;;;;;;4869903;29;20453;-73
2021/12/26 13:41:25;;;;;;;11.13;8.70;;;8.40;99.90;;;;;;4872340;29;20449;-71
2021/12/26 13:43:51;;;;;;;11.73;8.97;;;8.30;99.90;;;;;;4871456;29;20448;-71
2021/12/26 13:46:21;;;;;;;9.00;7.87;;;8.40;99.90;;;;;;4872917;29;20473;-71
2021/12/26 13:48:49;;;;;;;9.93;8.50;;;8.40;99.90;;;;;;4873323;29;20451;-71
2021/12/26 13:51:33;;;;;;;10.57;8.50;;;8.40;99.90;;;;;;4872508;29;20952;-72
2021/12/26 13:54:20;;;;;;;9.87;8.67;;;8.40;99.90;;;;;;4871760;29;20459;-72
2021/12/26 13:56:46;;;;;;;8.87;7.83;;;8.40;99.90;;;;;;4874811;29;20524;-73
2021/12/26 13:59:43;;;;;;;10.53;8.43;;;8.40;99.90;;;;;;4875894;29;20434;-73
2021/12/26 14:02:12;;;;;;;12.07;8.30;;;8.30;99.90;;;;;;4876226;29;20468;-72
2021/12/26 14:04:48;;;;;;;13.67;8.93;;;8.40;99.90;;;;;;4875651;29;20418;-72
2021/12/26 14:07:17;;;;;;;9.33;7.90;;;8.40;99.90;;;;;;4875694;29;20434;-72
2021/12/26 14:09:47;;;;;;;10.57;8.10;;;8.40;99.90;;;;;;4875782;29;20427;-73
2021/12/26 14:12:26;;;;;;;8.27;6.70;;;8.40;99.90;;;;;;4872071;29;20468;-72
2021/12/26 14:14:51;;;;;;;12.33;9.30;;;8.40;99.90;;;;;;4873406;29;20444;-74
2021/12/26 14:17:17;;;;;;;12.80;9.30;;;8.40;99.90;;;;;;4873802;29;20445;-72
2021/12/26 14:19:53;;;;;;;10.07;8.30;;;8.50;99.90;;;;;;4877088;29;20218;-73
2021/12/26 14:22:28;;;;;;;11.03;9.13;;;8.40;99.90;;;;;;4878299;29;20204;-72
2021/12/26 14:24:55;;;;;;;10.20;9.00;;;8.40;99.90;;;;;;4876644;29;20469;-71
2021/12/26 14:27:21;;;;;;;9.83;7.37;;;8.40;99.90;;;;;;4878393;29;20452;-73
2021/12/26 14:29:58;;;;;;;14.17;9.20;;;8.30;99.90;;;;;;4877887;29;20948;-72
2021/12/26 14:32:23;;;;;;;11.37;8.97;;;8.30;99.90;;;;;;4878349;29;20250;-74
2021/12/26 14:34:49;;;;;;;11.93;8.67;;;8.30;99.90;;;;;;4877008;29;20465;-72
2021/12/26 14:37:23;;;;;;;10.77;8.67;;;8.30;99.90;;;;;;4877877;29;20194;-72
2021/12/26 14:39:53;;;;;;;8.90;7.50;;;8.30;99.90;;;;;;4878428;29;20215;-72
2021/12/26 14:42:26;;;;;;;10.37;7.20;;;8.20;99.90;;;;;;4874675;29;20549;-72
2021/12/26 14:44:58;;;;;;;10.10;7.93;;;8.20;99.90;;;;;;4875098;29;20531;-75
2021/12/26 14:47:36;;;;;;;10.90;8.80;;;8.20;99.90;;;;;;4875579;29;20447;-72
2021/12/26 14:50:20;;;;;;;13.43;9.33;;;8.20;99.90;;;;;;4875668;29;20458;-72
2021/12/26 14:52:51;;;;;;;10.20;8.83;;;8.10;99.90;;;;;;4876368;29;20472;-71
2021/12/26 14:55:20;;;;;;;13.90;10.90;;;8.10;99.90;;;;;;4876074;29;21088;-72
2021/12/26 14:57:46;;;;;;;11.20;7.93;;;8.10;99.90;;;;;;4876127;29;20443;-72
2021/12/26 15:00:25;;;;;;;11.10;8.90;;;8.10;99.90;;;;;;4874529;29;20438;-72
2021/12/26 15:02:53;;;;;;;10.97;8.00;;;8.10;99.90;;;;;;4875876;29;21176;-72
2021/12/26 15:05:35;;;;;;;12.60;9.00;;;8.00;99.90;;;;;;4877901;29;20967;-72
2021/12/26 15:08:13;;;;;;;9.10;7.97;;;8.00;99.90;;;;;;4875273;29;20425;-72
2021/12/26 15:10:46;;;;;;;9.83;7.53;;;8.00;99.90;;;;;;4878298;29;20433;-73
2021/12/26 15:13:19;;;;;;;8.77;7.70;;;8.00;99.90;;;;;;4877653;29;20482;-73
2021/12/26 15:15:49;;;;;;;9.97;7.63;;;8.00;99.90;;;;;;4878785;29;20414;-71
2021/12/26 15:18:16;;;;;;;8.63;7.20;;;8.00;99.90;;;;;;4879817;29;20422;-72
2021/12/26 15:20:41;;;;;;;8.40;7.00;;;8.00;99.90;;;;;;4879671;29;20419;-72
2021/12/26 15:23:08;;;;;;;10.40;7.90;;;8.00;99.90;;;;;;4879276;29;20392;-71
2021/12/26 15:25:45;;;;;;;8.80;7.60;;;7.90;99.90;;;;;;4879732;29;20189;-72
2021/12/26 15:28:14;;;;;;;7.27;6.00;;;7.90;99.90;;;;;;4877941;29;20432;-72
2021/12/26 15:30:42;;;;;;;8.90;6.30;;;7.90;99.90;;;;;;4878689;29;20434;-71
2021/12/26 15:33:07;;;;;;;8.70;6.83;;;7.90;99.90;;;;;;4878947;29;20570;-72
2021/12/26 15:35:36;;;;;;;11.20;7.40;;;7.90;99.90;;;;;;4879005;29;20505;-72
2021/12/26 15:38:02;;;;;;;9.30;7.57;;;7.90;99.90;;;;;;4879196;29;20588;-75
2021/12/26 15:40:28;;;;;;;8.47;7.27;;;7.90;99.90;;;;;;4879275;29;20420;-73
2021/12/26 15:42:54;;;;;;;11.90;7.57;;;7.90;99.90;;;;;;4878821;29;20511;-71
2021/12/26 15:45:21;;;;;;;11.50;7.90;;;7.90;99.90;;;;;;4862529;29;20564;-72
2021/12/26 15:47:46;;;;;;;12.50;6.87;;;7.90;99.90;;;;;;4879224;29;20494;-73
2021/12/26 15:50:12;;;;;;;10.67;8.50;;;7.90;99.90;;;;;;4879112;29;20428;-73
2021/12/26 15:52:37;;;;;;;11.07;8.97;;;7.80;99.90;;;;;;4879087;29;20217;-73
2021/12/26 15:55:04;;;;;;;11.73;7.57;;;7.80;99.90;;;;;;4878397;29;20258;-73
2021/12/26 15:57:30;;;;;;;10.77;8.40;;;7.80;99.90;;;;;;4875017;29;20183;-72
2021/12/26 15:59:55;;;;;;;12.10;8.90;;;7.80;99.90;;;;;;4877278;29;20794;-71
2021/12/26 16:02:21;;;;;;;13.70;9.40;;;7.80;99.90;;;;;;4878766;29;20204;-72
2021/12/26 16:04:46;;;;;;;11.50;8.93;;;7.80;99.90;;;;;;4877615;29;20181;-73
2021/12/26 16:07:12;;;;;;;9.00;8.10;;;7.90;99.90;;;;;;4878735;29;20195;-72
2021/12/26 16:09:38;;;;;;;20.80;13.60;;;7.90;99.90;;;;;;4879329;29;20274;-73
2021/12/26 16:12:04;;;;;;;6.97;6.30;;;7.90;99.90;;;;;;4878644;29;20306;-74
2021/12/26 16:14:30;;;;;;;11.03;7.80;;;7.90;99.90;;;;;;4878652;29;20420;-73
2021/12/26 16:16:56;;;;;;;8.20;7.40;;;7.90;99.90;;;;;;4878803;29;20507;-73
2021/12/26 16:19:22;;;;;;;7.73;6.80;;;7.90;99.90;;;;;;4878874;29;20184;-73
2021/12/26 16:21:49;;;;;;;9.67;8.37;;;7.90;99.90;;;;;;4878611;29;20254;-73
2021/12/26 16:24:15;;;;;;;12.43;8.93;;;7.90;99.90;;;;;;4877411;29;20504;-72
2021/12/26 16:26:41;;;;;;;12.93;9.30;;;7.80;99.90;;;;;;4878738;29;20511;-73
2021/12/26 16:29:08;;;;;;;9.07;7.20;;;7.80;99.90;;;;;;4878560;29;20186;-72
2021/12/26 16:31:33;;;;;;;7.77;6.77;;;7.80;99.90;;;;;;4878291;29;20217;-72
2021/12/26 16:33:59;;;;;;;10.77;8.40;;;7.80;99.90;;;;;;4878341;29;20956;-71
2021/12/26 16:36:24;;;;;;;17.37;8.83;;;7.80;99.90;;;;;;4879033;29;20225;-72
2021/12/26 16:38:50;;;;;;;13.87;9.03;;;7.80;99.90;;;;;;4878596;29;20215;-72
2021/12/26 16:41:16;;;;;;;14.87;10.17;;;7.80;99.90;;;;;;4877668;29;20210;-72
2021/12/26 16:43:42;;;;;;;14.20;10.57;;;7.80;99.90;;;;;;4878204;29;20605;-75
2021/12/26 16:46:10;;;;;;;16.60;11.83;;;7.70;99.90;;;;;;4878653;29;20453;-72
2021/12/26 16:48:36;;;;;;;22.43;14.50;;;7.70;99.90;;;;;;4878369;29;20451;-72
2021/12/26 16:51:01;;;;;;;15.70;11.90;;;7.70;99.90;;;;;;4878191;29;20808;-72
2021/12/26 16:53:27;;;;;;;16.97;11.60;;;7.70;99.90;;;;;;4877960;29;20304;-73
2021/12/26 16:55:52;;;;;;;16.10;12.60;;;7.70;99.90;;;;;;4878384;29;20248;-72
2021/12/26 16:58:18;;;;;;;17.30;12.20;;;7.60;99.90;;;;;;4877647;29;20186;-71
2021/12/26 17:00:44;;;;;;;17.37;11.90;;;7.60;99.90;;;;;;4872913;29;20300;-72
2021/12/26 17:03:09;;;;;;;14.30;10.83;;;7.60;99.90;;;;;;4875340;29;20611;-72
2021/12/26 17:05:36;;;;;;;20.60;12.90;;;7.50;99.90;;;;;;4875278;29;20215;-73
2021/12/26 17:08:02;;;;;;;16.53;13.00;;;7.50;99.90;;;;;;4875146;29;20257;-73
2021/12/26 17:10:28;;;;;;;13.50;11.37;;;7.50;99.90;;;;;;4875770;29;20498;-76
2021/12/26 17:12:53;;;;;;;14.23;11.97;;;7.40;99.90;;;;;;4881762;29;20831;-72
2021/12/26 17:15:19;;;;;;;13.43;10.60;;;7.40;99.90;;;;;;4873436;29;20982;-72
2021/12/26 17:17:45;;;;;;;13.67;10.30;;;7.40;99.90;;;;;;4873251;29;20223;-73